createdAt,value
2019-02-02T00:01:28.274Z,14.04
2019-02-02T00:03:56.056Z,14.06
2019-02-02T00:06:23.812Z,13.91
2019-02-02T00:08:51.563Z,14.18
2019-02-02T00:11:19.429Z,14.34
2019-02-02T00:13:47.177Z,14.24
2019-02-02T00:16:14.896Z,14.29
2019-02-02T00:18:42.667Z,14.29
2019-02-02T00:21:10.408Z,14.34
2019-02-02T00:23:38.160Z,14.28
2019-02-02T00:26:06.020Z,14.26
2019-02-02T00:28:33.760Z,14.26
2019-02-02T00:31:01.495Z,14.34
2019-02-02T00:33:29.244Z,14.28
2019-02-02T00:35:57.155Z,14.18
2019-02-02T00:38:24.860Z,14.24
2019-02-02T00:40:52.618Z,14.24
2019-02-02T00:43:20.412Z,14.10
2019-02-02T00:45:48.204Z,13.74
2019-02-02T00:48:15.960Z,13.17
2019-02-02T00:50:43.817Z,12.92
2019-02-02T00:53:11.768Z,13.32
2019-02-02T00:55:39.514Z,13.88
2019-02-02T00:58:07.294Z,14.11
2019-02-02T01:00:35.046Z,13.88
2019-02-02T01:03:02.863Z,13.70
2019-02-02T01:05:30.617Z,13.61
2019-02-02T01:07:58.433Z,13.87
2019-02-02T01:10:27.484Z,13.84
2019-02-02T01:12:55.240Z,13.63
2019-02-02T01:15:23.076Z,14.00
2019-02-02T01:17:50.916Z,14.22
2019-02-02T01:20:18.684Z,14.18
2019-02-02T01:22:46.666Z,14.19
2019-02-02T01:25:14.409Z,13.87
2019-02-02T01:27:42.166Z,14.12
2019-02-02T01:30:16.267Z,13.67
2019-02-02T01:32:44.069Z,13.78
2019-02-02T01:35:12.408Z,13.83
2019-02-02T01:37:40.175Z,13.89
2019-02-02T01:40:09.032Z,13.73
2019-02-02T01:42:36.800Z,13.40
2019-02-02T01:45:05.389Z,13.74
2019-02-02T01:47:33.111Z,13.77
2019-02-02T01:50:00.839Z,13.99
2019-02-02T01:52:28.735Z,13.91
2019-02-02T01:54:56.467Z,13.79
2019-02-02T01:57:24.485Z,14.03
2019-02-02T01:59:52.191Z,13.73
2019-02-02T02:02:19.940Z,13.87
2019-02-02T02:04:47.677Z,13.89
2019-02-02T02:07:15.425Z,13.38
2019-02-02T02:09:43.164Z,13.27
2019-02-02T02:12:10.981Z,13.41
2019-02-02T02:14:38.710Z,13.41
2019-02-02T02:17:06.477Z,13.33
2019-02-02T02:19:34.538Z,13.38
2019-02-02T02:22:02.352Z,13.20
2019-02-02T02:24:30.089Z,12.62
2019-02-02T02:26:58.157Z,12.97
2019-02-02T02:29:25.885Z,13.24
2019-02-02T02:31:55.378Z,13.28
2019-02-02T02:34:23.433Z,13.02
2019-02-02T02:36:51.163Z,13.08
2019-02-02T02:39:18.897Z,13.31
2019-02-02T02:41:46.632Z,12.61
2019-02-02T02:44:14.391Z,12.52
2019-02-02T02:46:42.144Z,12.75
2019-02-02T02:49:09.892Z,13.35
2019-02-02T02:51:37.633Z,13.60
2019-02-02T02:54:05.408Z,13.60
2019-02-02T02:56:33.188Z,13.26
2019-02-02T02:59:01.013Z,13.30
2019-02-02T03:01:28.759Z,12.51
2019-02-02T03:03:56.493Z,12.95
2019-02-02T03:06:24.239Z,13.52
2019-02-02T03:08:51.988Z,13.37
2019-02-02T03:11:19.733Z,13.32
2019-02-02T03:13:47.496Z,13.28
2019-02-02T03:16:15.255Z,13.27
2019-02-02T03:18:43.088Z,13.13
2019-02-02T03:21:10.852Z,13.35
2019-02-02T03:23:38.580Z,12.93
2019-02-02T03:26:06.321Z,12.74
2019-02-02T03:28:34.063Z,12.48
2019-02-02T03:31:02.077Z,12.51
2019-02-02T03:33:29.889Z,12.36
2019-02-02T03:35:57.878Z,12.32
2019-02-02T03:38:25.624Z,12.12
2019-02-02T03:40:53.356Z,12.27
2019-02-02T03:43:21.285Z,13.03
2019-02-02T03:45:49.155Z,12.94
2019-02-02T03:48:16.895Z,12.34
2019-02-02T03:50:44.637Z,12.57
2019-02-02T03:53:12.683Z,12.38
2019-02-02T03:55:40.471Z,12.14
2019-02-02T03:58:08.267Z,12.11
2019-02-02T04:00:36.085Z,11.83
2019-02-02T04:03:03.826Z,12.48
2019-02-02T04:05:31.634Z,12.46
2019-02-02T04:07:59.439Z,12.29
2019-02-02T04:10:27.181Z,12.42
2019-02-02T04:12:54.928Z,12.67
2019-02-02T04:15:22.826Z,12.55
2019-02-02T04:17:50.827Z,12.17
2019-02-02T04:20:19.475Z,12.47
2019-02-02T04:22:47.350Z,12.69
2019-02-02T04:25:15.212Z,13.17
2019-02-02T04:27:43.016Z,12.83
2019-02-02T04:30:12.128Z,12.40
2019-02-02T04:32:39.855Z,12.71
2019-02-02T04:35:08.403Z,12.33
2019-02-02T04:37:38.162Z,12.38
2019-02-02T04:40:05.661Z,12.19
2019-02-02T04:42:33.472Z,12.05
2019-02-02T04:45:01.218Z,12.41
2019-02-02T04:47:29.081Z,12.11
2019-02-02T04:49:56.948Z,11.88
2019-02-02T04:52:24.688Z,12.24
2019-02-02T04:54:52.433Z,12.28
2019-02-02T04:57:20.177Z,12.05
2019-02-02T04:59:47.940Z,12.49
2019-02-02T05:02:15.668Z,12.14
2019-02-02T05:04:43.423Z,12.09
2019-02-02T05:07:11.286Z,12.39
2019-02-02T05:09:39.077Z,11.86
2019-02-02T05:12:06.829Z,11.11
2019-02-02T05:14:34.571Z,12.67
2019-02-02T05:17:02.476Z,12.27
2019-02-02T05:19:30.208Z,12.91
2019-02-02T05:21:57.941Z,12.99
2019-02-02T05:24:25.687Z,13.05
2019-02-02T05:26:53.418Z,13.31
2019-02-02T05:29:21.173Z,12.62
2019-02-02T05:31:48.961Z,12.87
2019-02-02T05:34:16.743Z,13.31
2019-02-02T05:36:44.489Z,12.97
2019-02-02T05:39:12.221Z,12.76
2019-02-02T05:41:39.978Z,12.94
2019-02-02T05:44:07.715Z,12.76
2019-02-02T05:46:35.446Z,12.17
2019-02-02T05:49:03.191Z,12.58
2019-02-02T05:51:30.928Z,12.96
2019-02-02T05:53:58.684Z,12.74
2019-02-02T05:56:26.425Z,13.09
2019-02-02T05:58:54.248Z,12.55
2019-02-02T06:01:22.049Z,12.99
2019-02-02T06:03:49.796Z,12.71
2019-02-02T06:06:17.556Z,12.63
2019-02-02T06:08:45.279Z,12.63
2019-02-02T06:11:13.013Z,13.00
2019-02-02T06:13:40.748Z,12.83
2019-02-02T06:16:08.477Z,13.03
2019-02-02T06:18:36.241Z,13.07
2019-02-02T06:21:03.980Z,13.07
2019-02-02T06:23:31.800Z,13.07
2019-02-02T06:25:59.621Z,12.87
2019-02-02T06:28:27.480Z,12.89
2019-02-02T06:30:55.201Z,12.92
2019-02-02T06:33:22.925Z,12.88
2019-02-02T06:35:50.660Z,12.63
2019-02-02T06:38:18.493Z,12.54
2019-02-02T06:40:46.255Z,12.70
2019-02-02T06:43:14.082Z,12.68
2019-02-02T06:45:42.094Z,12.66
2019-02-02T06:48:09.837Z,12.54
2019-02-02T06:50:37.699Z,12.82
2019-02-02T06:53:05.760Z,12.78
2019-02-02T06:55:33.873Z,12.75
2019-02-02T06:58:01.614Z,12.82
2019-02-02T07:00:29.340Z,12.84
2019-02-02T07:02:57.095Z,12.76
2019-02-02T07:05:24.979Z,12.82
2019-02-02T07:07:52.717Z,12.84
2019-02-02T07:10:21.654Z,12.67
2019-02-02T07:12:49.406Z,13.02
2019-02-02T07:15:17.530Z,12.78
2019-02-02T07:17:45.365Z,12.84
2019-02-02T07:20:13.441Z,12.73
2019-02-02T07:22:41.250Z,12.85
2019-02-02T07:25:09.137Z,12.88
2019-02-02T07:27:36.970Z,12.90
2019-02-02T07:30:05.648Z,12.91
2019-02-02T07:32:33.618Z,12.90
2019-02-02T07:35:01.463Z,12.78
2019-02-02T07:37:29.193Z,13.11
2019-02-02T07:39:56.960Z,13.17
2019-02-02T07:42:24.813Z,13.28
2019-02-02T07:44:52.564Z,13.42
2019-02-02T07:47:20.542Z,13.64
2019-02-02T07:49:48.432Z,13.54
2019-02-02T07:52:16.160Z,13.60
2019-02-02T07:54:43.916Z,13.57
2019-02-02T07:57:11.836Z,13.59
2019-02-02T07:59:39.590Z,13.67
2019-02-02T08:02:07.393Z,13.68
2019-02-02T08:04:35.234Z,13.76
2019-02-02T08:07:02.964Z,13.76
2019-02-02T08:09:31.032Z,13.76
2019-02-02T08:11:58.793Z,13.80
2019-02-02T08:14:26.514Z,14.05
2019-02-02T08:16:54.255Z,13.97
2019-02-02T08:19:22.004Z,14.01
2019-02-02T08:21:49.923Z,13.95
2019-02-02T08:24:17.680Z,13.97
2019-02-02T08:26:45.417Z,13.99
2019-02-02T08:29:13.159Z,13.96
2019-02-02T08:31:41.020Z,14.07
2019-02-02T08:34:08.760Z,14.16
2019-02-02T08:36:36.487Z,14.44
2019-02-02T08:39:06.647Z,14.43
2019-02-02T08:41:34.385Z,14.11
2019-02-02T08:44:02.241Z,14.42
2019-02-02T08:46:30.085Z,14.30
2019-02-02T08:48:57.925Z,14.18
2019-02-02T08:51:25.684Z,14.53
2019-02-02T08:53:53.574Z,14.49
2019-02-02T08:56:21.308Z,14.84
2019-02-02T08:58:49.048Z,14.64
2019-02-02T09:01:16.768Z,14.11
2019-02-02T09:03:44.749Z,14.99
2019-02-02T09:06:12.536Z,14.42
2019-02-02T09:08:40.281Z,14.59
2019-02-02T09:11:08.029Z,14.36
2019-02-02T09:13:36.864Z,14.20
2019-02-02T09:16:04.935Z,14.38
2019-02-02T09:18:32.781Z,14.30
2019-02-02T09:21:00.634Z,14.41
2019-02-02T09:23:28.517Z,14.25
2019-02-02T09:25:56.403Z,14.18
2019-02-02T09:28:24.145Z,14.22
2019-02-02T09:30:51.909Z,14.20
2019-02-02T09:33:20.256Z,14.91
2019-02-02T09:35:47.973Z,14.40
2019-02-02T09:38:16.216Z,14.28
2019-02-02T09:40:43.957Z,14.24
2019-02-02T09:43:11.800Z,14.41
2019-02-02T09:45:39.579Z,14.31
2019-02-02T09:48:07.357Z,13.72
2019-02-02T09:50:35.501Z,13.41
2019-02-02T09:53:03.256Z,13.19
2019-02-02T09:55:31.158Z,11.75
2019-02-02T09:58:00.437Z,12.06
2019-02-02T10:00:28.930Z,13.44
2019-02-02T10:02:56.726Z,14.36
2019-02-02T10:05:24.755Z,14.02
2019-02-02T10:07:52.499Z,14.68
2019-02-02T10:10:21.187Z,14.13
2019-02-02T10:12:49.212Z,14.39
2019-02-02T10:15:17.244Z,14.09
2019-02-02T10:17:45.169Z,14.46
2019-02-02T10:20:14.007Z,14.26
2019-02-02T10:22:41.761Z,14.40
2019-02-02T10:25:10.068Z,14.57
2019-02-02T10:27:37.817Z,14.46
2019-02-02T10:30:06.305Z,14.44
2019-02-02T10:32:34.271Z,15.16
2019-02-02T10:35:02.002Z,14.73
2019-02-02T10:37:29.853Z,14.87
2019-02-02T10:39:57.659Z,15.31
2019-02-02T10:42:25.431Z,15.03
2019-02-02T10:44:53.163Z,14.51
2019-02-02T10:47:20.967Z,15.35
2019-02-02T10:49:48.989Z,14.57
2019-02-02T10:52:16.716Z,14.35
2019-02-02T10:54:44.639Z,15.00
2019-02-02T10:57:12.389Z,15.47
2019-02-02T10:59:40.664Z,15.23
2019-02-02T11:02:08.476Z,14.85
2019-02-02T11:04:36.220Z,15.71
2019-02-02T11:07:04.418Z,14.77
2019-02-02T11:09:32.381Z,15.60
2019-02-02T11:12:00.330Z,14.75
2019-02-02T11:14:28.188Z,15.91
2019-02-02T11:16:55.985Z,15.62
2019-02-02T11:19:23.843Z,15.28
2019-02-02T11:21:52.022Z,15.48
2019-02-02T11:24:19.838Z,15.25
2019-02-02T11:26:47.808Z,15.80
2019-02-02T11:29:16.435Z,14.80
2019-02-02T11:31:44.512Z,14.96
2019-02-02T11:34:12.459Z,15.51
2019-02-02T11:36:40.298Z,15.76
2019-02-02T11:39:08.135Z,15.66
2019-02-02T11:41:35.967Z,15.07
2019-02-02T11:44:03.991Z,14.99
2019-02-02T11:46:32.113Z,16.30
2019-02-02T11:48:59.922Z,16.23
2019-02-02T11:51:28.059Z,15.30
2019-02-02T11:53:55.943Z,15.60
2019-02-02T11:56:41.189Z,16.54
2019-02-02T11:59:12.235Z,16.01
2019-02-02T12:01:39.991Z,15.22
2019-02-02T12:04:07.799Z,14.58
2019-02-02T12:06:35.635Z,16.11
2019-02-02T12:09:04.498Z,15.77
2019-02-02T12:11:32.255Z,15.58
2019-02-02T12:13:59.956Z,14.85
2019-02-02T12:16:27.732Z,15.00
2019-02-02T12:18:55.571Z,15.90
2019-02-02T12:21:23.352Z,15.30
2019-02-02T12:23:51.102Z,15.49
2019-02-02T12:26:19.830Z,15.45
2019-02-02T12:28:49.558Z,15.39
2019-02-02T12:31:18.070Z,15.33
2019-02-02T12:33:48.082Z,15.52
2019-02-02T12:36:16.919Z,15.23
2019-02-02T12:38:44.644Z,15.26
2019-02-02T12:41:12.402Z,15.21
2019-02-02T12:43:40.127Z,15.34
2019-02-02T12:46:08.123Z,15.34
2019-02-02T12:48:35.836Z,15.84
2019-02-02T12:51:06.347Z,15.19
2019-02-02T12:53:34.546Z,15.29
2019-02-02T12:56:05.599Z,16.09
2019-02-02T12:58:33.376Z,15.98
2019-02-02T13:01:01.210Z,16.06
2019-02-02T13:03:30.326Z,15.71
2019-02-02T13:06:00.054Z,16.15
2019-02-02T13:08:35.127Z,15.58
2019-02-02T13:11:02.842Z,15.18
2019-02-02T13:13:30.721Z,15.90
2019-02-02T13:15:58.487Z,16.06
2019-02-02T13:18:26.355Z,16.18
2019-02-02T13:20:54.243Z,16.21
2019-02-02T13:23:22.408Z,15.46
2019-02-02T13:25:50.141Z,15.20
2019-02-02T13:28:18.007Z,16.05
2019-02-02T13:30:45.895Z,16.18
2019-02-02T13:33:13.660Z,16.07
2019-02-02T13:35:42.493Z,15.92
2019-02-02T13:38:10.262Z,16.57
2019-02-02T13:40:38.535Z,16.02
2019-02-02T13:43:06.361Z,16.52
2019-02-02T13:45:34.111Z,15.91
2019-02-02T13:48:01.852Z,15.59
2019-02-02T13:50:29.784Z,15.07
2019-02-02T13:52:57.624Z,15.73
2019-02-02T13:55:25.388Z,16.05
2019-02-02T13:57:53.160Z,15.64
2019-02-02T14:00:22.119Z,16.16
2019-02-02T14:03:01.531Z,15.54
2019-02-02T14:05:19.619Z,15.43
2019-02-02T14:07:47.451Z,15.53
2019-02-02T14:10:16.382Z,15.08
2019-02-02T14:12:44.248Z,14.80
2019-02-02T14:15:11.981Z,14.42
2019-02-02T14:17:39.748Z,14.93
2019-02-02T14:20:07.979Z,15.08
2019-02-02T14:22:37.564Z,14.85
2019-02-02T14:25:05.912Z,14.85
2019-02-02T14:27:33.640Z,14.25
2019-02-02T14:30:01.400Z,14.43
2019-02-02T14:32:29.152Z,15.04
2019-02-02T14:34:57.029Z,15.13
2019-02-02T14:43:22.231Z,14.42
2019-02-02T14:45:49.938Z,14.39
2019-02-02T14:48:17.684Z,14.77
2019-02-02T14:50:45.392Z,14.65
2019-02-02T14:53:13.106Z,14.62
2019-02-02T14:55:46.593Z,14.49
2019-02-02T14:58:14.417Z,14.41
2019-02-02T15:00:44.792Z,14.25
2019-02-02T15:03:25.726Z,13.74
2019-02-02T15:06:01.750Z,14.99
2019-02-02T15:08:32.440Z,14.35
2019-02-02T15:11:00.269Z,14.26
2019-02-02T15:13:28.227Z,14.12
2019-02-02T15:15:56.098Z,13.61
2019-02-02T15:18:23.876Z,13.71
2019-02-02T15:20:51.636Z,13.06
2019-02-02T15:23:19.476Z,13.03
2019-02-02T15:27:10.278Z,13.11
2019-02-02T15:29:19.938Z,12.48
2019-02-02T15:32:43.441Z,11.87
2019-02-02T15:36:31.371Z,13.56
2019-02-02T15:38:38.347Z,14.41
2019-02-02T15:41:30.618Z,14.18
2019-02-02T15:44:04.445Z,14.02
2019-02-02T15:47:02.913Z,14.37
2019-02-02T15:49:32.863Z,14.36
2019-02-02T15:52:16.369Z,14.22
2019-02-02T16:01:42.970Z,13.76
2019-02-02T16:04:19.664Z,13.74
2019-02-02T16:07:32.496Z,14.77
2019-02-02T16:09:57.762Z,14.96
2019-02-02T16:12:25.583Z,14.80
2019-02-02T16:14:55.362Z,15.08
2019-02-02T16:17:37.333Z,14.72
2019-02-02T16:20:05.292Z,14.65
2019-02-02T16:22:33.068Z,15.20
2019-02-02T16:25:00.816Z,14.88
2019-02-02T16:27:28.567Z,14.41
2019-02-02T16:29:56.313Z,14.37
2019-02-02T16:32:24.161Z,15.20
2019-02-02T16:34:51.900Z,14.50
2019-02-02T16:37:19.639Z,14.48
2019-02-02T16:39:47.391Z,14.64
2019-02-02T16:42:15.560Z,14.57
2019-02-02T16:44:43.303Z,15.17
2019-02-02T16:47:11.062Z,14.46
2019-02-02T16:49:39.699Z,15.66
2019-02-02T16:52:07.537Z,15.46
2019-02-02T16:54:35.279Z,15.16
2019-02-02T16:57:03.020Z,14.72
2019-02-02T16:59:30.819Z,15.75
2019-02-02T17:01:58.713Z,15.36
2019-02-02T17:04:26.451Z,14.91
2019-02-02T17:06:54.215Z,15.18
2019-02-02T17:09:22.111Z,14.75
2019-02-02T17:11:49.944Z,14.57
2019-02-02T17:14:18.054Z,14.62
2019-02-02T17:16:46.112Z,15.48
2019-02-02T17:19:13.920Z,15.56
2019-02-02T17:21:41.844Z,15.20
2019-02-02T17:24:09.653Z,14.86
2019-02-02T17:26:37.539Z,14.40
2019-02-02T17:29:05.301Z,14.32
2019-02-02T17:31:33.101Z,14.58
2019-02-02T17:34:00.859Z,14.68
2019-02-02T17:36:28.669Z,15.96
2019-02-02T17:38:56.576Z,14.82
2019-02-02T17:41:24.320Z,15.31
2019-02-02T17:43:52.070Z,15.84
2019-02-02T17:46:19.880Z,15.28
2019-02-02T17:48:47.701Z,14.63
2019-02-02T17:51:16.649Z,14.59
2019-02-02T17:53:44.745Z,14.82
2019-02-02T17:56:13.633Z,15.07
2019-02-02T17:58:41.412Z,15.64
2019-02-02T18:01:09.142Z,14.21
2019-02-02T18:03:36.877Z,14.32
2019-02-02T18:06:04.690Z,15.30
2019-02-02T18:08:32.496Z,15.21
2019-02-02T18:11:00.363Z,15.46
2019-02-02T18:13:28.113Z,14.81
2019-02-02T18:15:55.868Z,14.79
2019-02-02T18:18:23.638Z,14.58
2019-02-02T18:20:51.372Z,14.49
2019-02-02T18:23:19.134Z,14.53
2019-02-02T18:25:46.912Z,14.62
2019-02-02T18:28:14.668Z,14.66
2019-02-02T18:30:42.594Z,15.19
2019-02-02T18:33:10.343Z,14.79
2019-02-02T18:35:38.089Z,14.78
2019-02-02T18:38:06.000Z,14.78
2019-02-02T18:40:33.876Z,14.66
2019-02-02T18:43:01.605Z,14.78
2019-02-02T18:45:29.351Z,14.78
2019-02-02T18:47:57.126Z,14.78
2019-02-02T18:50:24.875Z,14.77
2019-02-02T18:52:52.940Z,14.78
2019-02-02T18:55:25.006Z,14.83
2019-02-02T18:57:52.783Z,14.87
2019-02-02T19:00:20.606Z,14.96
2019-02-02T19:02:48.346Z,14.90
2019-02-02T19:05:16.116Z,14.92
2019-02-02T19:07:43.991Z,15.11
2019-02-02T19:10:13.152Z,14.98
2019-02-02T19:12:41.087Z,15.01
2019-02-02T19:15:09.112Z,14.97
2019-02-02T19:17:36.871Z,14.95
2019-02-02T19:20:05.519Z,15.15
2019-02-02T19:22:33.457Z,15.13
2019-02-02T19:25:01.196Z,15.17
2019-02-02T19:27:28.927Z,15.08
2019-02-02T19:29:56.708Z,15.10
2019-02-02T19:32:24.492Z,14.96
2019-02-02T19:34:52.334Z,15.14
2019-02-02T19:37:21.156Z,15.08
2019-02-02T19:39:49.045Z,15.04
2019-02-02T19:42:25.220Z,15.12
2019-02-02T19:44:52.984Z,14.96
2019-02-02T19:47:20.717Z,14.95
2019-02-02T19:49:48.525Z,14.98
2019-02-02T19:52:16.250Z,14.82
2019-02-02T19:54:44.113Z,14.97
2019-02-02T19:57:11.960Z,14.70
2019-02-02T19:59:39.715Z,15.29
2019-02-02T20:02:07.468Z,15.04
2019-02-02T20:04:35.207Z,15.45
2019-02-02T20:07:02.982Z,16.37
2019-02-02T20:09:30.763Z,15.42
2019-02-02T20:11:58.758Z,14.87
2019-02-02T20:14:26.507Z,14.63
2019-02-02T20:16:54.250Z,14.43
2019-02-02T20:19:22.049Z,14.16
2019-02-02T20:21:49.903Z,14.07
2019-02-02T20:24:17.819Z,14.11
2019-02-02T20:26:45.710Z,14.44
2019-02-02T20:29:13.456Z,14.21
2019-02-02T20:31:41.248Z,14.18
2019-02-02T20:34:08.986Z,14.40
2019-02-02T20:36:36.749Z,13.37
2019-02-02T20:39:06.405Z,13.44
2019-02-02T20:41:34.161Z,13.57
2019-02-02T20:44:03.566Z,13.71
2019-02-02T20:46:31.436Z,13.59
2019-02-02T20:48:59.215Z,14.29
2019-02-02T20:51:27.033Z,13.56
2019-02-02T20:53:54.797Z,13.44
2019-02-02T20:56:23.550Z,12.82
2019-02-02T20:58:51.513Z,13.09
2019-02-02T21:01:19.326Z,13.19
2019-02-02T21:03:47.149Z,13.33
2019-02-02T21:06:14.998Z,13.58
2019-02-02T21:08:42.862Z,12.93
2019-02-02T21:11:10.912Z,13.17
2019-02-02T21:13:38.765Z,13.19
2019-02-02T21:16:06.537Z,13.73
2019-02-02T21:18:34.380Z,14.05
2019-02-02T21:21:02.593Z,14.29
2019-02-02T21:23:30.397Z,13.06
2019-02-02T21:25:58.152Z,13.43
2019-02-02T21:28:26.015Z,12.83
2019-02-02T21:30:53.858Z,13.62
2019-02-02T21:33:21.826Z,14.08
2019-02-02T21:35:49.687Z,14.06
2019-02-02T21:38:17.590Z,14.57
2019-02-02T21:40:45.410Z,14.10
2019-02-02T21:43:13.231Z,13.77
2019-02-02T21:45:41.170Z,13.00
2019-02-02T21:48:09.016Z,12.07
2019-02-02T21:50:36.828Z,13.04
2019-02-02T21:53:04.669Z,12.69
2019-02-02T21:55:32.439Z,12.48
2019-02-02T21:58:00.276Z,12.97
2019-02-02T22:00:29.140Z,12.86
2019-02-02T22:02:56.957Z,13.06
2019-02-02T22:05:24.801Z,12.98
2019-02-02T22:07:52.625Z,13.08
2019-02-02T22:10:20.601Z,13.17
2019-02-02T22:12:48.464Z,12.85
2019-02-02T22:15:17.652Z,12.91
2019-02-02T22:17:45.525Z,12.82
2019-02-02T22:20:13.303Z,12.64
2019-02-02T22:22:41.150Z,12.57
2019-02-02T22:25:10.574Z,13.33
2019-02-02T22:27:38.535Z,13.44
2019-02-02T22:30:07.414Z,13.11
2019-02-02T22:32:35.261Z,13.24
2019-02-02T22:35:03.347Z,13.13
2019-02-02T22:37:31.165Z,13.03
2019-02-02T22:39:58.951Z,13.36
2019-02-02T22:42:27.133Z,13.35
2019-02-02T22:44:55.005Z,13.32
2019-02-02T22:47:22.882Z,13.46
2019-02-02T22:49:50.997Z,13.92
2019-02-02T22:52:18.809Z,14.18
2019-02-02T22:54:46.587Z,14.09
2019-02-02T22:57:16.080Z,14.03
2019-02-02T22:59:43.945Z,14.03
2019-02-02T23:02:16.282Z,14.14
2019-02-02T23:04:48.928Z,14.05
2019-02-02T23:07:30.597Z,14.03
2019-02-02T23:10:08.221Z,13.83
2019-02-02T23:12:57.824Z,13.87
2019-02-02T23:15:34.593Z,13.65
2019-02-02T23:18:02.600Z,13.25
2019-02-02T23:20:30.677Z,13.78
2019-02-02T23:22:58.530Z,13.79
2019-02-02T23:25:26.615Z,13.94
2019-02-02T23:27:54.445Z,13.95
2019-02-02T23:30:22.328Z,13.75
2019-02-02T23:32:50.176Z,13.75
2019-02-02T23:35:18.324Z,13.55
2019-02-02T23:37:46.186Z,13.01
2019-02-02T23:40:14.085Z,13.11
2019-02-02T23:42:42.069Z,13.23
2019-02-02T23:45:09.957Z,13.04
2019-02-02T23:47:38.026Z,13.32
2019-02-02T23:50:06.157Z,12.71
2019-02-02T23:52:34.299Z,12.98
2019-02-02T23:55:02.394Z,13.26
2019-02-02T23:57:30.416Z,13.39
2019-02-02T23:59:58.242Z,13.58
